Time;durP1;ratioP1;P1;durP2;ratioP2;P2;SDS_P1;SDS_P2;PMS_P1;PMS_P2;Temp;Humidity;BMP_temperature;BMP_pressure;BME280_temperature;BME280_humidity;BME280_pressure;Samples;Min_cycle;Max_cycle;Signal;HPM_P1;HPM_P2
2021/12/19 00:00:42;;;;;;;177.15;135.35;;;19.60;45.10;;;;;;4828373;55;21009;-37
2021/12/19 00:11:03;;;;;;;173.50;134.10;;;19.60;45.00;;;;;;4747826;55;21057;-38
2021/12/19 00:16:04;;;;;;;175.05;131.32;;;19.60;44.90;;;;;;4834600;55;20999;-37
2021/12/19 00:21:06;;;;;;;181.55;135.00;;;19.60;45.00;;;;;;4833210;54;21089;-37
2021/12/19 00:26:07;;;;;;;176.80;136.07;;;19.60;44.90;;;;;;4821211;55;21009;-38
2021/12/19 00:31:09;;;;;;;176.90;135.93;;;19.60;44.90;;;;;;4748635;58;21061;-37
2021/12/19 00:36:10;;;;;;;161.60;124.50;;;19.60;44.90;;;;;;4748750;54;21029;-38
2021/12/19 00:41:11;;;;;;;160.77;122.03;;;19.60;44.80;;;;;;4768248;55;21053;-38
2021/12/19 00:46:15;;;;;;;164.27;122.60;;;19.60;44.80;;;;;;5122228;55;21062;-39
2021/12/19 00:51:20;;;;;;;177.35;134.02;;;19.60;44.80;;;;;;4981900;55;21633;-39
2021/12/19 00:56:21;;;;;;;161.18;121.10;;;19.60;44.70;;;;;;4973691;55;21005;-36
2021/12/19 01:01:22;;;;;;;165.70;125.30;;;19.60;44.80;;;;;;4969881;54;21473;-36
2021/12/19 01:06:23;;;;;;;168.50;123.10;;;19.60;44.80;;;;;;4811336;55;21014;-40
2021/12/19 01:11:24;;;;;;;174.30;131.87;;;19.60;44.70;;;;;;4777655;55;21101;-37
2021/12/19 01:16:25;;;;;;;175.65;134.48;;;19.60;44.70;;;;;;4810605;54;20994;-38
2021/12/19 01:21:26;;;;;;;172.90;130.45;;;19.60;44.60;;;;;;4753867;55;21117;-41
2021/12/19 01:26:27;;;;;;;171.23;132.40;;;19.60;44.70;;;;;;4772146;55;21007;-38
2021/12/19 01:31:27;;;;;;;176.73;131.50;;;19.60;44.60;;;;;;4776516;54;21049;-37
2021/12/19 01:36:28;;;;;;;162.23;124.20;;;19.60;44.40;;;;;;4748031;58;21060;-38
2021/12/19 01:41:29;;;;;;;171.15;129.70;;;19.60;44.70;;;;;;5094330;55;21536;-40
2021/12/19 01:46:30;;;;;;;167.68;130.12;;;19.60;44.70;;;;;;4907172;55;20994;-36
2021/12/19 01:51:31;;;;;;;166.88;125.25;;;19.60;44.60;;;;;;5139243;54;21001;-36
2021/12/19 01:56:33;;;;;;;161.23;122.85;;;19.60;44.70;;;;;;4794321;55;21611;-38
2021/12/19 02:01:49;;;;;;;153.77;114.25;;;19.60;44.50;;;;;;4843187;54;21492;-36
2021/12/19 02:06:50;;;;;;;167.90;128.62;;;19.60;44.50;;;;;;4815761;55;21072;-36
2021/12/19 02:11:52;;;;;;;157.62;122.03;;;19.60;44.40;;;;;;4748099;58;21487;-37
2021/12/19 02:16:53;;;;;;;162.93;119.15;;;19.60;44.50;;;;;;4827170;55;21476;-39
2021/12/19 02:21:54;;;;;;;170.50;128.45;;;19.60;44.50;;;;;;4748410;55;21114;-37
2021/12/19 02:26:55;;;;;;;162.62;120.55;;;19.60;44.40;;;;;;4761880;54;21041;-37
2021/12/19 02:31:55;;;;;;;159.52;114.40;;;19.60;44.40;;;;;;4885938;55;21017;-38
2021/12/19 02:37:19;;;;;;;150.87;113.03;;;19.50;44.40;;;;;;4748458;58;21523;-36
2021/12/19 02:53:02;;;;;;;156.75;119.53;;;19.60;44.30;;;;;;4747682;55;21070;-40
2021/12/19 02:58:03;;;;;;;163.52;122.50;;;19.60;44.20;;;;;;4769622;55;21555;-37
2021/12/19 03:03:05;;;;;;;163.70;123.03;;;19.60;44.30;;;;;;5075166;55;21025;-36
2021/12/19 03:08:08;;;;;;;149.55;111.80;;;19.60;44.30;;;;;;4790690;55;21001;-36
2021/12/19 03:13:47;;;;;;;159.55;120.97;;;19.50;44.30;;;;;;4865663;55;21484;-34
2021/12/19 03:18:49;;;;;;;149.90;114.65;;;19.60;44.20;;;;;;4954936;55;21604;-39
2021/12/19 03:23:50;;;;;;;149.15;114.93;;;19.50;44.20;;;;;;4880102;55;21078;-37
2021/12/19 03:28:51;;;;;;;162.02;119.82;;;19.50;44.20;;;;;;4768939;55;20997;-37
2021/12/19 03:33:52;;;;;;;148.68;112.18;;;19.50;44.20;;;;;;4811425;55;21021;-39
2021/12/19 03:38:57;;;;;;;150.38;113.40;;;19.50;44.20;;;;;;4748314;55;21065;-38
2021/12/19 03:43:59;;;;;;;151.75;115.35;;;19.50;44.30;;;;;;4842275;55;21520;-38
2021/12/19 03:49:00;;;;;;;147.37;111.90;;;19.50;44.10;;;;;;4946536;55;21002;-38
2021/12/19 03:54:00;;;;;;;149.15;115.05;;;19.50;44.10;;;;;;4747743;58;21483;-39
2021/12/19 03:59:02;;;;;;;149.43;110.60;;;19.50;44.10;;;;;;4789291;55;21014;-38
2021/12/19 04:04:03;;;;;;;149.30;113.55;;;19.50;44.00;;;;;;4916903;55;21524;-38
2021/12/19 04:09:04;;;;;;;139.93;105.40;;;19.50;44.10;;;;;;4748582;55;21053;-36
2021/12/19 04:14:05;;;;;;;146.25;111.75;;;19.50;44.00;;;;;;4773733;54;21010;-36
2021/12/19 04:19:06;;;;;;;146.60;111.35;;;19.50;44.00;;;;;;4775027;54;21140;-38
2021/12/19 04:24:07;;;;;;;134.85;103.15;;;19.50;44.10;;;;;;4838171;54;21026;-37
2021/12/19 04:29:08;;;;;;;142.55;110.30;;;19.50;44.10;;;;;;4802725;54;21073;-38
2021/12/19 04:34:09;;;;;;;142.15;107.53;;;19.50;44.20;;;;;;4833895;54;21014;-38
2021/12/19 04:39:56;;;;;;;143.93;110.80;;;19.50;44.00;;;;;;4933759;55;20994;-39
2021/12/19 04:56:14;;;;;;;137.50;105.87;;;19.50;44.00;;;;;;4746812;55;21050;-41
2021/12/19 05:18:28;;;;;;;137.37;105.70;;;19.50;43.90;;;;;;4748086;55;21085;-37
2021/12/19 05:23:51;;;;;;;129.43;99.97;;;19.50;43.80;;;;;;4899828;55;21469;-38
2021/12/19 05:28:53;;;;;;;134.15;102.22;;;19.50;44.00;;;;;;4864986;55;21560;-37
2021/12/19 05:33:53;;;;;;;133.75;103.95;;;19.50;44.00;;;;;;4861095;55;21504;-38
2021/12/19 05:49:34;;;;;;;124.50;94.97;;;19.50;43.90;;;;;;4748067;55;21076;-36
2021/12/19 05:54:35;;;;;;;129.10;99.20;;;19.50;43.90;;;;;;4747461;58;21459;-39
2021/12/19 05:59:36;;;;;;;124.28;96.45;;;19.50;43.80;;;;;;4935418;55;21046;-40
2021/12/19 06:04:37;;;;;;;119.93;94.45;;;19.50;43.90;;;;;;4860167;54;21479;-41
2021/12/19 06:09:38;;;;;;;127.15;97.57;;;19.50;44.00;;;;;;4818646;54;20990;-39
2021/12/19 06:14:39;;;;;;;120.75;90.50;;;19.50;43.80;;;;;;4747251;58;21053;-39
2021/12/19 06:19:40;;;;;;;119.57;93.62;;;19.50;43.90;;;;;;4978168;54;21065;-39
2021/12/19 06:24:41;;;;;;;117.18;89.43;;;19.50;43.80;;;;;;4904854;55;21045;-40
2021/12/19 06:29:42;;;;;;;118.95;93.32;;;19.50;43.90;;;;;;4926522;55;21583;-36
2021/12/19 06:34:42;;;;;;;119.82;93.90;;;19.50;43.80;;;;;;4765122;54;20997;-39
2021/12/19 06:39:43;;;;;;;117.53;89.85;;;19.50;43.70;;;;;;4806603;55;21070;-39
2021/12/19 06:44:44;;;;;;;118.35;89.00;;;19.50;43.80;;;;;;4841015;54;21053;-38
2021/12/19 06:49:45;;;;;;;117.95;90.12;;;19.40;43.90;;;;;;4775300;54;21009;-39
2021/12/19 06:54:46;;;;;;;116.43;91.20;;;19.50;43.80;;;;;;4885713;54;21005;-39
2021/12/19 06:59:47;;;;;;;120.40;91.47;;;19.50;43.80;;;;;;4795214;54;21464;-38
2021/12/19 07:04:48;;;;;;;116.07;89.93;;;19.50;43.70;;;;;;4835254;55;20986;-38
2021/12/19 07:09:49;;;;;;;117.72;91.63;;;19.50;43.70;;;;;;4870831;55;21108;-40
2021/12/19 07:14:50;;;;;;;113.00;85.18;;;19.50;43.80;;;;;;4828466;54;21559;-38
2021/12/19 07:19:51;;;;;;;112.28;88.90;;;19.50;43.80;;;;;;4863235;55;21009;-37
2021/12/19 07:24:52;;;;;;;110.63;87.65;;;19.50;43.70;;;;;;4888237;55;21033;-38
2021/12/19 07:29:56;;;;;;;112.43;84.95;;;19.50;43.70;;;;;;4748204;55;21073;-40
2021/12/19 07:34:57;;;;;;;116.10;88.30;;;19.50;43.70;;;;;;4766822;55;21476;-39
2021/12/19 07:40:09;;;;;;;110.37;85.43;;;19.50;43.70;;;;;;4802854;55;21001;-39
2021/12/19 07:45:11;;;;;;;105.28;81.95;;;19.50;43.70;;;;;;4748454;58;21475;-38
2021/12/19 07:50:13;;;;;;;112.28;87.10;;;19.50;43.70;;;;;;4915272;55;21499;-39
2021/12/19 07:55:14;;;;;;;111.85;86.18;;;19.40;43.70;;;;;;4881395;55;21077;-35
2021/12/19 08:00:16;;;;;;;108.07;83.95;;;19.50;43.70;;;;;;4816330;55;21475;-39
2021/12/19 08:05:19;;;;;;;110.97;83.95;;;19.40;43.70;;;;;;5122354;55;21101;-40
2021/12/19 08:16:07;;;;;;;112.93;88.50;;;19.40;43.60;;;;;;4863765;54;20986;-37
2021/12/19 08:21:08;;;;;;;114.53;88.37;;;19.40;43.60;;;;;;4767268;55;21018;-42
2021/12/19 08:26:09;;;;;;;110.28;87.05;;;19.50;43.80;;;;;;4766814;55;21030;-41
2021/12/19 08:31:10;;;;;;;105.55;82.18;;;19.40;44.10;;;;;;4764387;55;21180;-39
2021/12/19 08:36:11;;;;;;;111.35;86.90;;;19.50;44.40;;;;;;4805850;54;21042;-39
2021/12/19 08:41:12;;;;;;;109.65;84.80;;;19.40;44.30;;;;;;4796618;54;21085;-40
2021/12/19 08:46:13;;;;;;;112.43;87.53;;;19.50;43.80;;;;;;4816035;55;20990;-39
2021/12/19 08:51:14;;;;;;;113.43;87.32;;;19.50;43.70;;;;;;4797351;55;21050;-40
2021/12/19 08:56:14;;;;;;;111.60;86.93;;;19.40;43.70;;;;;;4748223;58;21009;-39
2021/12/19 09:01:15;;;;;;;109.60;86.47;;;19.50;44.00;;;;;;4792593;54;21013;-38
2021/12/19 09:06:16;;;;;;;109.25;84.55;;;19.40;43.60;;;;;;4827582;55;21457;-39
2021/12/19 09:11:17;;;;;;;113.82;88.35;;;19.40;43.60;;;;;;4871994;55;21010;-37
2021/12/19 09:16:18;;;;;;;111.37;87.45;;;19.40;43.70;;;;;;4783776;54;21005;-39
2021/12/19 09:21:19;;;;;;;112.10;87.68;;;19.50;43.70;;;;;;4748499;58;21005;-38
2021/12/19 09:26:20;;;;;;;109.97;84.68;;;19.50;43.70;;;;;;4788992;54;21029;-40
2021/12/19 09:31:24;;;;;;;117.45;90.65;;;19.50;43.80;;;;;;4748195;58;20978;-38
2021/12/19 09:36:25;;;;;;;116.03;91.32;;;19.50;43.70;;;;;;4810970;54;21120;-38
2021/12/19 09:41:29;;;;;;;123.32;93.47;;;19.40;43.80;;;;;;4835631;55;21041;-38
2021/12/19 09:46:34;;;;;;;118.78;90.82;;;19.50;43.80;;;;;;4756794;55;21520;-38
2021/12/19 09:51:36;;;;;;;121.22;93.18;;;19.50;43.80;;;;;;4789496;55;21073;-40
2021/12/19 09:56:38;;;;;;;123.82;97.35;;;19.50;43.70;;;;;;4748493;58;21014;-38
2021/12/19 10:01:40;;;;;;;122.78;95.47;;;19.50;43.70;;;;;;4888289;55;21053;-41
2021/12/19 10:06:41;;;;;;;127.62;98.50;;;19.50;43.80;;;;;;4784964;55;20970;-40
2021/12/19 10:12:10;;;;;;;123.10;95.30;;;19.50;43.80;;;;;;4748063;58;21029;-40
2021/12/19 10:17:18;;;;;;;125.22;96.00;;;19.50;43.90;;;;;;4895526;55;21563;-38
2021/12/19 10:22:34;;;;;;;125.15;98.68;;;19.50;43.90;;;;;;4864617;55;21468;-39
2021/12/19 10:27:38;;;;;;;129.38;99.32;;;19.50;43.90;;;;;;4806763;55;21045;-37
2021/12/19 10:32:54;;;;;;;124.20;95.38;;;19.50;43.90;;;;;;4747817;58;21081;-40
2021/12/19 10:37:56;;;;;;;123.15;91.78;;;19.50;43.90;;;;;;4888065;55;21022;-38
2021/12/19 10:43:01;;;;;;;121.15;96.18;;;19.50;43.90;;;;;;4907117;55;20998;-38
2021/12/19 10:49:01;;;;;;;125.00;97.78;;;19.60;44.00;;;;;;4941157;55;21465;-37
2021/12/19 10:54:07;;;;;;;117.87;93.00;;;19.60;44.00;;;;;;4752535;54;21017;-40
2021/12/19 10:59:13;;;;;;;127.65;100.18;;;19.60;44.00;;;;;;4900235;55;21476;-40
2021/12/19 11:04:22;;;;;;;131.10;100.47;;;19.60;44.00;;;;;;4748416;58;21535;-36
2021/12/19 11:09:37;;;;;;;125.28;96.97;;;19.60;44.00;;;;;;4924521;55;21032;-39
2021/12/19 11:14:40;;;;;;;125.93;100.05;;;19.60;44.10;;;;;;4769223;55;21504;-37
2021/12/19 11:19:42;;;;;;;126.05;100.03;;;19.60;44.10;;;;;;4946824;55;21069;-41
2021/12/19 11:24:43;;;;;;;127.12;100.75;;;19.60;44.00;;;;;;4747580;58;21025;-40
2021/12/19 11:29:45;;;;;;;127.32;98.60;;;19.60;44.10;;;;;;4938126;55;21058;-40
2021/12/19 11:35:24;;;;;;;126.28;98.18;;;19.60;44.10;;;;;;4838018;55;21077;-40
2021/12/19 11:40:30;;;;;;;123.30;97.25;;;19.60;44.10;;;;;;4807639;55;21009;-40
2021/12/19 11:50:59;;;;;;;125.72;99.00;;;19.60;44.20;;;;;;4813451;55;21029;-40
2021/12/19 11:56:09;;;;;;;129.30;101.60;;;19.60;44.20;;;;;;4850633;55;21071;-39
2021/12/19 12:01:12;;;;;;;129.10;98.93;;;19.60;44.30;;;;;;4967366;55;21001;-38
2021/12/19 12:06:54;;;;;;;126.03;97.50;;;19.50;44.20;;;;;;4827119;55;21046;-38
2021/12/19 12:12:12;;;;;;;125.47;96.87;;;19.60;44.30;;;;;;4803070;55;21464;-41
2021/12/19 12:17:19;;;;;;;122.97;98.12;;;19.60;44.40;;;;;;4861534;55;21483;-38
2021/12/19 12:22:44;;;;;;;125.35;99.30;;;19.50;44.30;;;;;;4928998;55;21500;-39
2021/12/19 12:27:52;;;;;;;123.07;96.95;;;19.50;44.40;;;;;;4748266;58;21512;-38
2021/12/19 12:32:54;;;;;;;123.00;95.00;;;19.60;44.40;;;;;;4748045;58;21066;-39
2021/12/19 12:37:55;;;;;;;127.00;99.40;;;19.50;44.40;;;;;;4807189;55;21062;-37
2021/12/19 12:43:11;;;;;;;126.95;101.25;;;19.60;44.50;;;;;;4748598;58;21449;-38
2021/12/19 12:48:24;;;;;;;125.53;98.72;;;19.60;44.50;;;;;;4800142;55;20994;-38
2021/12/19 12:53:37;;;;;;;120.95;95.62;;;19.60;44.50;;;;;;4747840;58;21046;-40
2021/12/19 12:58:44;;;;;;;125.78;97.78;;;19.50;44.50;;;;;;4792620;55;21448;-39
2021/12/19 13:10:33;;;;;;;122.47;98.87;;;19.60;44.60;;;;;;4775363;55;21551;-39
2021/12/19 13:15:34;;;;;;;127.60;97.65;;;19.60;44.70;;;;;;4897086;55;21072;-37
2021/12/19 13:20:36;;;;;;;123.80;97.12;;;19.60;44.70;;;;;;4748259;58;20985;-39
2021/12/19 13:25:42;;;;;;;128.05;100.47;;;19.60;44.70;;;;;;4887225;55;21511;-40
2021/12/19 13:30:46;;;;;;;126.87;98.15;;;19.50;44.60;;;;;;4748313;58;21592;-39
2021/12/19 13:35:53;;;;;;;125.95;99.32;;;19.50;44.60;;;;;;4752351;55;21515;-38
2021/12/19 13:40:57;;;;;;;126.22;96.78;;;19.50;44.70;;;;;;4767432;55;21069;-38
2021/12/19 13:46:07;;;;;;;128.15;103.38;;;19.50;44.70;;;;;;4809878;55;21058;-39
2021/12/19 13:51:32;;;;;;;131.90;101.53;;;19.50;44.80;;;;;;4931131;55;21456;-35
2021/12/19 13:56:35;;;;;;;126.97;99.93;;;19.50;44.70;;;;;;4777656;55;21519;-36
2021/12/19 14:01:38;;;;;;;124.97;99.10;;;19.50;44.70;;;;;;4756568;55;20998;-38
2021/12/19 14:06:39;;;;;;;123.80;97.95;;;19.50;44.80;;;;;;4748536;55;21061;-36
2021/12/19 14:11:44;;;;;;;123.43;97.53;;;19.60;44.80;;;;;;4748405;58;21453;-36
2021/12/19 14:16:46;;;;;;;129.80;101.20;;;19.60;44.90;;;;;;4868130;55;21480;-36
2021/12/19 14:21:47;;;;;;;124.53;91.95;;;19.50;44.80;;;;;;4938654;55;20998;-36
2021/12/19 14:26:51;;;;;;;129.55;98.85;;;19.60;44.90;;;;;;4978795;54;21142;-38
2021/12/19 14:32:00;;;;;;;130.15;101.62;;;19.50;44.80;;;;;;4936028;55;21488;-36
2021/12/19 14:37:33;;;;;;;131.20;103.50;;;19.60;44.90;;;;;;4754220;55;21055;-36
2021/12/19 14:43:27;;;;;;;130.98;101.15;;;19.50;44.90;;;;;;4748530;58;21461;-36
2021/12/19 14:48:39;;;;;;;133.48;105.20;;;19.60;45.00;;;;;;4866258;55;21021;-40
2021/12/19 14:53:43;;;;;;;130.68;103.72;;;19.50;44.90;;;;;;4889814;55;21026;-41
2021/12/19 14:58:47;;;;;;;131.73;101.78;;;19.50;44.90;;;;;;4753942;55;21037;-38
2021/12/19 15:03:58;;;;;;;135.65;106.65;;;19.50;44.90;;;;;;4850517;55;20982;-40
2021/12/19 15:08:59;;;;;;;131.75;102.68;;;19.50;44.90;;;;;;4768794;55;21558;-38
2021/12/19 15:14:00;;;;;;;141.57;107.72;;;19.50;44.90;;;;;;4798541;54;21069;-37
2021/12/19 15:19:03;;;;;;;135.00;105.47;;;19.50;44.90;;;;;;4762501;55;21065;-39
2021/12/19 15:24:05;;;;;;;141.88;108.85;;;19.50;45.00;;;;;;4792515;55;21496;-37
2021/12/19 15:29:06;;;;;;;140.93;107.95;;;19.50;45.00;;;;;;4859434;55;20969;-37
2021/12/19 15:34:08;;;;;;;135.07;106.57;;;19.50;45.00;;;;;;4791716;55;21488;-37
2021/12/19 15:39:08;;;;;;;143.68;112.30;;;19.50;45.00;;;;;;4788945;55;21178;-38
2021/12/19 15:44:09;;;;;;;146.18;113.95;;;19.50;45.00;;;;;;4864775;55;20997;-38
2021/12/19 15:49:11;;;;;;;144.55;111.10;;;19.50;45.00;;;;;;4814483;54;21040;-38
2021/12/19 15:54:11;;;;;;;146.82;114.00;;;19.50;45.00;;;;;;4844711;55;21013;-38
2021/12/19 15:59:12;;;;;;;142.30;110.10;;;19.50;45.00;;;;;;4795292;55;21005;-40
2021/12/19 16:04:13;;;;;;;144.95;109.95;;;19.50;45.00;;;;;;4809471;55;20994;-39
2021/12/19 16:09:14;;;;;;;146.62;111.03;;;19.50;45.00;;;;;;4748238;58;21472;-39
2021/12/19 16:14:16;;;;;;;151.02;114.90;;;19.50;45.00;;;;;;4747721;58;21061;-37
2021/12/19 16:19:17;;;;;;;146.52;108.65;;;19.50;45.00;;;;;;4822415;55;21468;-36
2021/12/19 16:24:18;;;;;;;142.32;108.90;;;19.50;45.00;;;;;;4915182;55;21062;-38
2021/12/19 16:29:19;;;;;;;147.73;112.72;;;19.50;45.70;;;;;;4847509;54;21532;-40
2021/12/19 16:34:21;;;;;;;144.35;109.53;;;19.50;45.00;;;;;;4803051;55;21018;-39
2021/12/19 16:39:23;;;;;;;143.68;109.37;;;19.50;45.00;;;;;;4813611;54;21547;-37
2021/12/19 16:44:24;;;;;;;145.68;112.78;;;19.50;45.00;;;;;;4793472;55;21539;-38
2021/12/19 16:49:25;;;;;;;157.62;117.20;;;19.50;45.00;;;;;;4758545;55;21066;-38
2021/12/19 16:54:27;;;;;;;152.57;114.00;;;19.50;45.00;;;;;;4830170;55;21062;-39
2021/12/19 16:59:28;;;;;;;154.43;117.47;;;19.50;45.00;;;;;;4782601;55;21511;-38
2021/12/19 17:04:29;;;;;;;154.10;117.53;;;19.50;45.10;;;;;;4748492;58;21049;-36
2021/12/19 17:09:31;;;;;;;159.35;119.22;;;19.50;45.00;;;;;;4776699;54;21379;-36
2021/12/19 17:14:32;;;;;;;154.65;118.62;;;19.50;45.00;;;;;;4811592;55;21077;-37
2021/12/19 17:19:34;;;;;;;163.77;121.35;;;19.50;45.00;;;;;;4748440;58;21049;-37
2021/12/19 17:24:35;;;;;;;160.32;119.93;;;19.40;45.00;;;;;;4748014;56;21492;-38
2021/12/19 17:29:36;;;;;;;162.18;123.72;;;19.50;45.00;;;;;;4789949;55;21001;-37
2021/12/19 17:34:37;;;;;;;156.77;119.40;;;19.40;45.00;;;;;;4933607;55;21014;-36
2021/12/19 17:39:42;;;;;;;160.95;119.55;;;19.50;45.10;;;;;;4748746;58;21041;-38
2021/12/19 17:44:43;;;;;;;158.15;122.20;;;19.40;45.00;;;;;;4874683;55;21472;-40
2021/12/19 17:49:44;;;;;;;162.18;122.47;;;19.40;45.10;;;;;;4808315;55;21487;-39
2021/12/19 17:54:46;;;;;;;168.77;125.45;;;19.40;45.00;;;;;;4870806;54;21057;-39
2021/12/19 17:59:47;;;;;;;165.12;122.40;;;19.40;45.00;;;;;;4780008;55;21527;-40
2021/12/19 18:04:47;;;;;;;169.82;126.72;;;19.40;45.00;;;;;;4932146;54;21002;-36
2021/12/19 18:09:48;;;;;;;168.10;127.93;;;19.40;45.00;;;;;;4893594;55;21057;-45
2021/12/19 18:14:49;;;;;;;172.15;128.87;;;19.40;45.00;;;;;;4747502;54;21476;-36
2021/12/19 18:19:50;;;;;;;175.18;130.15;;;19.40;45.00;;;;;;4748563;58;20998;-38
2021/12/19 18:24:51;;;;;;;171.82;130.23;;;19.40;45.10;;;;;;4982559;54;21097;-33
2021/12/19 18:29:52;;;;;;;175.75;131.40;;;19.40;45.00;;;;;;4748009;54;21065;-35
2021/12/19 18:34:54;;;;;;;172.57;128.07;;;19.40;45.00;;;;;;4909722;55;20998;-36
2021/12/19 18:40:04;;;;;;;168.43;126.18;;;19.40;45.00;;;;;;5018269;55;21520;-37
2021/12/19 18:45:23;;;;;;;170.68;128.02;;;19.40;44.90;;;;;;4868386;55;21476;-37
2021/12/19 18:51:41;;;;;;;177.90;132.48;;;19.40;44.90;;;;;;4859091;55;21496;-38
2021/12/19 18:56:43;;;;;;;179.80;132.68;;;19.40;44.80;;;;;;4929376;55;21516;-38
2021/12/19 19:01:56;;;;;;;178.55;134.98;;;19.40;44.90;;;;;;4748581;55;21475;-34
2021/12/19 19:07:01;;;;;;;183.82;137.00;;;19.40;44.90;;;;;;4748286;58;21452;-36
2021/12/19 19:12:03;;;;;;;189.87;139.15;;;19.40;44.80;;;;;;4798049;55;21491;-37
2021/12/19 19:17:05;;;;;;;183.65;135.90;;;19.40;44.80;;;;;;4776437;55;20989;-36
2021/12/19 19:22:07;;;;;;;187.48;139.93;;;19.40;44.90;;;;;;4773118;55;21468;-35
2021/12/19 19:27:08;;;;;;;192.20;141.77;;;19.40;44.80;;;;;;4790942;54;21480;-36
2021/12/19 19:32:09;;;;;;;192.27;142.62;;;19.40;44.80;;;;;;4790909;55;21057;-36
2021/12/19 19:37:11;;;;;;;183.93;135.32;;;19.40;44.80;;;;;;4748455;58;21533;-36
2021/12/19 19:54:48;;;;;;;191.12;137.30;;;19.40;44.80;;;;;;4771111;54;21507;-35
2021/12/19 19:59:49;;;;;;;199.32;146.23;;;19.40;44.70;;;;;;4826560;55;20998;-37
2021/12/19 20:04:50;;;;;;;198.45;145.20;;;19.40;44.70;;;;;;4779718;55;21006;-36
2021/12/19 20:09:54;;;;;;;199.12;142.57;;;19.40;44.80;;;;;;4796725;54;21077;-36
2021/12/19 20:14:55;;;;;;;204.55;153.23;;;19.40;44.70;;;;;;4899576;55;21605;-33
2021/12/19 20:19:56;;;;;;;203.10;152.05;;;19.40;44.60;;;;;;4764570;54;21061;-35
2021/12/19 20:24:57;;;;;;;209.20;152.05;;;19.30;44.60;;;;;;4882911;55;21077;-34
2021/12/19 20:29:58;;;;;;;206.65;152.73;;;19.40;44.60;;;;;;4963293;54;21503;-36
2021/12/19 20:34:59;;;;;;;212.45;151.87;;;19.40;44.60;;;;;;4842069;55;21065;-36
2021/12/19 20:40:02;;;;;;;210.48;154.25;;;19.40;44.60;;;;;;4830786;54;20994;-37
2021/12/19 20:45:06;;;;;;;206.80;148.87;;;19.30;44.60;;;;;;4879743;55;21002;-32
2021/12/19 20:50:10;;;;;;;215.32;157.30;;;19.40;44.60;;;;;;4986566;55;21523;-35
2021/12/19 20:55:12;;;;;;;218.32;160.37;;;19.40;44.60;;;;;;4749724;55;21053;-32
2021/12/19 21:00:16;;;;;;;218.73;158.27;;;19.40;44.50;;;;;;4783027;55;21002;-34
2021/12/19 21:05:17;;;;;;;216.70;157.88;;;19.40;44.50;;;;;;4803404;55;21037;-36
2021/12/19 21:10:18;;;;;;;206.95;150.02;;;19.30;44.50;;;;;;4814253;55;20993;-33
2021/12/19 21:15:33;;;;;;;210.75;151.50;;;19.30;44.50;;;;;;4842500;54;21014;-35
2021/12/19 21:20:37;;;;;;;203.90;148.77;;;19.30;45.10;;;;;;4748590;58;21456;-36
2021/12/19 21:25:38;;;;;;;213.15;153.50;;;19.30;44.40;;;;;;4942913;54;21582;-37
2021/12/19 21:30:39;;;;;;;203.75;146.45;;;19.30;44.50;;;;;;4849610;55;21465;-35
2021/12/19 21:42:11;;;;;;;213.55;152.93;;;19.30;44.30;;;;;;4783199;54;21109;-36
2021/12/19 21:47:12;;;;;;;218.52;159.82;;;19.30;44.30;;;;;;4860425;55;21009;-36
2021/12/19 21:52:13;;;;;;;211.32;154.18;;;19.30;44.30;;;;;;4826817;55;21486;-35
2021/12/19 21:57:13;;;;;;;223.07;166.12;;;19.30;44.40;;;;;;4748498;58;21018;-38
2021/12/19 22:02:14;;;;;;;215.73;154.23;;;19.30;44.30;;;;;;4776335;54;21001;-38
2021/12/19 22:07:15;;;;;;;221.43;163.80;;;19.30;44.20;;;;;;4773299;54;21076;-35
2021/12/19 22:12:28;;;;;;;226.32;166.48;;;19.30;44.10;;;;;;4853240;54;21002;-37
2021/12/19 22:17:28;;;;;;;223.95;160.98;;;19.30;44.20;;;;;;4857476;55;21005;-35
2021/12/19 22:22:29;;;;;;;222.32;159.75;;;19.30;44.10;;;;;;4880386;55;21029;-35
2021/12/19 22:27:30;;;;;;;228.12;166.07;;;19.30;44.10;;;;;;4765666;55;21010;-37
2021/12/19 22:32:31;;;;;;;229.25;166.75;;;19.20;44.10;;;;;;4748031;58;21575;-33
2021/12/19 22:37:32;;;;;;;234.02;169.68;;;19.30;44.20;;;;;;4748450;58;21005;-37
2021/12/19 22:42:33;;;;;;;234.95;171.95;;;19.30;44.00;;;;;;5001231;55;20997;-35
2021/12/19 22:47:34;;;;;;;234.05;167.20;;;19.30;44.00;;;;;;4819267;54;21073;-34
2021/12/19 22:52:35;;;;;;;231.43;168.60;;;19.30;44.00;;;;;;4749217;55;20998;-35
2021/12/19 22:57:36;;;;;;;233.55;167.27;;;19.30;44.10;;;;;;4923511;54;21025;-36
2021/12/19 23:02:38;;;;;;;235.35;166.55;;;19.30;44.00;;;;;;4965366;54;20997;-36
2021/12/19 23:07:39;;;;;;;237.12;168.70;;;19.30;43.90;;;;;;4779633;55;21472;-37
2021/12/19 23:12:43;;;;;;;234.95;167.68;;;19.30;43.90;;;;;;4927345;54;21021;-37
2021/12/19 23:17:55;;;;;;;219.40;155.95;;;19.30;43.90;;;;;;4751789;55;21493;-33
2021/12/19 23:22:57;;;;;;;245.30;172.82;;;19.30;43.90;;;;;;4748095;58;21587;-34
2021/12/19 23:27:57;;;;;;;230.30;164.20;;;19.30;43.90;;;;;;4899502;55;21005;-39
2021/12/19 23:50:08;;;;;;;234.80;168.65;;;19.30;43.80;;;;;;4747811;55;21021;-34
2021/12/19 23:55:12;;;;;;;242.02;174.20;;;19.30;43.80;;;;;;4766285;55;21010;-35
